createdAt,value
2019-05-22T00:00:59.522Z,67.12
2019-05-22T00:03:36.647Z,67.10
2019-05-22T00:06:03.742Z,67.12
2019-05-22T00:08:30.658Z,67.15
2019-05-22T00:10:58.633Z,67.17
2019-05-22T00:13:27.246Z,67.20
2019-05-22T00:15:54.238Z,67.09
2019-05-22T00:18:22.046Z,67.07
2019-05-22T00:20:49.219Z,67.04
2019-05-22T00:23:17.419Z,67.23
2019-05-22T00:25:43.903Z,67.23
2019-05-22T00:28:10.485Z,67.19
2019-05-22T00:30:38.370Z,67.17
2019-05-22T00:33:05.547Z,67.26
2019-05-22T00:35:33.955Z,67.20
2019-05-22T00:38:00.875Z,67.21
2019-05-22T00:40:28.734Z,67.24
2019-05-22T00:43:04.250Z,67.25
2019-05-22T00:45:24.812Z,67.22
2019-05-22T00:47:51.168Z,67.16
2019-05-22T00:50:19.162Z,67.05
2019-05-22T00:52:46.976Z,67.15
2019-05-22T00:55:23.797Z,67.21
2019-05-22T00:58:06.460Z,67.20
2019-05-22T01:00:37.318Z,67.12
2019-05-22T01:03:05.212Z,67.16
2019-05-22T01:05:31.155Z,67.09
2019-05-22T01:07:57.223Z,67.23
2019-05-22T01:10:23.714Z,67.20
2019-05-22T01:12:53.454Z,67.28
2019-05-22T01:15:20.398Z,67.28
2019-05-22T01:17:48.212Z,67.27
2019-05-22T01:20:18.646Z,67.25
2019-05-22T01:22:47.407Z,67.20
2019-05-22T01:25:15.369Z,67.24
2019-05-22T01:27:41.937Z,67.25
2019-05-22T01:30:10.138Z,67.24
2019-05-22T01:32:52.716Z,67.28
2019-05-22T01:35:20.669Z,67.25
2019-05-22T01:37:46.767Z,67.35
2019-05-22T01:40:25.686Z,67.28
2019-05-22T01:42:53.473Z,67.27
2019-05-22T01:45:21.387Z,67.24
2019-05-22T01:47:56.346Z,67.17
2019-05-22T01:50:24.545Z,67.17
2019-05-22T01:52:51.319Z,67.28
2019-05-22T01:55:19.212Z,67.26
2019-05-22T01:57:46.707Z,67.25
2019-05-22T02:00:12.964Z,67.29
2019-05-22T02:02:40.879Z,67.24
2019-05-22T02:05:09.081Z,67.20
2019-05-22T02:07:34.950Z,67.20
2019-05-22T02:10:01.562Z,67.22
2019-05-22T02:12:30.827Z,67.18
2019-05-22T02:14:57.694Z,67.23
2019-05-22T02:17:26.410Z,67.16
2019-05-22T02:19:52.844Z,67.24
2019-05-22T02:22:19.220Z,67.13
2019-05-22T02:24:45.149Z,67.22
2019-05-22T02:27:11.216Z,67.23
2019-05-22T02:29:37.578Z,67.25
2019-05-22T02:32:06.410Z,67.25
2019-05-22T02:34:34.299Z,67.24
2019-05-22T02:37:00.248Z,67.32
2019-05-22T02:39:28.244Z,67.30
2019-05-22T02:41:56.140Z,67.26
2019-05-22T02:44:23.365Z,67.30
2019-05-22T02:46:50.411Z,67.21
2019-05-22T02:49:17.075Z,67.30
2019-05-22T02:51:43.155Z,67.17
2019-05-22T02:54:09.786Z,67.26
2019-05-22T02:56:36.140Z,67.29
2019-05-22T02:59:04.137Z,67.28
2019-05-22T03:01:30.036Z,67.27
2019-05-22T03:03:55.921Z,67.32
2019-05-22T03:06:22.808Z,67.29
2019-05-22T03:08:56.840Z,67.22
2019-05-22T03:11:23.503Z,67.32
2019-05-22T03:13:53.171Z,67.33
2019-05-22T03:16:19.908Z,67.31
2019-05-22T03:18:45.953Z,67.40
2019-05-22T03:21:12.002Z,67.41
2019-05-22T03:23:38.777Z,67.27
2019-05-22T03:26:07.695Z,67.23
2019-05-22T03:28:35.185Z,67.32
2019-05-22T03:31:05.090Z,67.28
2019-05-22T03:33:31.108Z,67.31
2019-05-22T03:35:58.987Z,67.30
2019-05-22T03:38:25.549Z,67.39
2019-05-22T03:40:51.810Z,67.38
2019-05-22T03:43:19.798Z,67.41
2019-05-22T03:45:47.400Z,67.36
2019-05-22T03:48:13.695Z,67.33
2019-05-22T03:50:40.190Z,67.26
2019-05-22T03:53:08.527Z,67.35
2019-05-22T03:55:34.792Z,67.35
2019-05-22T03:58:00.842Z,67.34
2019-05-22T04:00:27.404Z,67.24
2019-05-22T04:02:54.478Z,67.28
2019-05-22T04:05:21.989Z,67.16
2019-05-22T04:07:49.084Z,67.10
2019-05-22T04:10:15.005Z,67.06
2019-05-22T04:12:40.967Z,66.96
2019-05-22T04:15:08.886Z,67.07
2019-05-22T04:17:35.582Z,67.02
2019-05-22T04:20:06.041Z,66.92
2019-05-22T04:22:31.997Z,66.91
2019-05-22T04:24:58.022Z,66.91
2019-05-22T04:27:25.547Z,66.90
2019-05-22T04:29:52.648Z,66.94
2019-05-22T04:32:32.591Z,66.94
2019-05-22T04:34:58.962Z,66.86
2019-05-22T04:37:25.330Z,66.88
2019-05-22T04:39:52.310Z,66.94
2019-05-22T04:42:18.556Z,66.82
2019-05-22T04:45:03.809Z,66.95
2019-05-22T04:47:30.529Z,66.97
2019-05-22T04:50:06.863Z,66.96
2019-05-22T04:52:24.196Z,67.12
2019-05-22T04:54:52.500Z,66.92
2019-05-22T04:57:18.240Z,66.96
2019-05-22T04:59:44.399Z,66.98
2019-05-22T05:02:10.461Z,67.02
2019-05-22T05:04:37.231Z,67.03
2019-05-22T05:07:05.128Z,67.04
2019-05-22T05:09:32.199Z,67.02
2019-05-22T05:11:59.095Z,66.91
2019-05-22T05:14:26.048Z,67.29
2019-05-22T05:16:52.532Z,67.02
2019-05-22T05:19:19.563Z,66.83
2019-05-22T05:21:46.290Z,66.63
2019-05-22T05:24:12.934Z,66.53
2019-05-22T05:26:40.538Z,66.33
2019-05-22T05:29:08.949Z,66.16
2019-05-22T05:31:35.699Z,66.18
2019-05-22T05:34:10.161Z,66.14
2019-05-22T05:36:37.345Z,66.27
2019-05-22T05:39:05.573Z,66.18
2019-05-22T05:41:31.607Z,66.36
2019-05-22T05:43:57.677Z,66.39
2019-05-22T05:46:23.632Z,66.45
2019-05-22T05:48:49.886Z,66.58
2019-05-22T05:51:17.882Z,66.64
2019-05-22T05:53:55.226Z,66.79
2019-05-22T05:56:21.245Z,66.74
2019-05-22T05:58:47.311Z,66.69
2019-05-22T06:01:19.656Z,66.69
2019-05-22T06:03:45.765Z,66.74
2019-05-22T06:06:23.769Z,66.64
2019-05-22T06:08:50.339Z,66.74
2019-05-22T06:11:31.150Z,66.86
2019-05-22T06:13:57.210Z,66.82
2019-05-22T06:16:26.257Z,66.88
2019-05-22T06:18:52.933Z,67.00
2019-05-22T06:21:19.777Z,66.94
2019-05-22T06:24:00.367Z,66.92
2019-05-22T06:26:28.887Z,66.84
2019-05-22T06:28:56.884Z,66.90
2019-05-22T06:31:33.893Z,66.88
2019-05-22T06:34:00.106Z,66.80
2019-05-22T06:36:25.980Z,66.92
2019-05-22T06:38:56.892Z,66.80
2019-05-22T06:41:27.772Z,66.82
2019-05-22T06:44:12.726Z,66.97
2019-05-22T06:46:42.717Z,66.84
2019-05-22T06:49:10.680Z,66.79
2019-05-22T06:51:36.558Z,66.78
2019-05-22T06:54:02.701Z,66.73
2019-05-22T06:56:28.669Z,66.77
2019-05-22T06:58:54.658Z,66.82
2019-05-22T07:01:20.581Z,66.70
2019-05-22T07:03:46.438Z,66.76
2019-05-22T07:06:12.412Z,66.80
2019-05-22T07:08:38.679Z,66.87
2019-05-22T07:11:05.541Z,66.76
2019-05-22T07:13:32.711Z,66.74
2019-05-22T07:16:00.122Z,66.65
2019-05-22T07:18:28.428Z,66.74
2019-05-22T07:20:54.573Z,66.65
2019-05-22T07:23:22.622Z,66.73
2019-05-22T07:25:49.356Z,66.80
2019-05-22T07:28:16.647Z,66.69
2019-05-22T07:30:43.108Z,66.81
2019-05-22T07:33:09.508Z,66.78
2019-05-22T07:35:50.339Z,66.74
2019-05-22T07:38:04.313Z,66.84
2019-05-22T07:40:30.388Z,66.77
2019-05-22T07:42:56.839Z,66.82
2019-05-22T07:45:23.869Z,66.84
2019-05-22T07:47:50.304Z,66.77
2019-05-22T07:50:16.354Z,66.77
2019-05-22T07:52:42.313Z,66.79
2019-05-22T07:55:08.567Z,66.93
2019-05-22T07:57:34.815Z,66.92
2019-05-22T08:00:00.690Z,67.08
2019-05-22T08:02:29.286Z,67.04
2019-05-22T08:04:55.463Z,66.97
2019-05-22T08:07:23.337Z,66.77
2019-05-22T08:09:49.795Z,66.26
2019-05-22T08:12:16.262Z,66.12
2019-05-22T08:14:42.631Z,66.20
2019-05-22T08:17:08.698Z,65.95
2019-05-22T08:19:34.664Z,65.94
2019-05-22T08:22:07.204Z,65.91
2019-05-22T08:24:28.835Z,65.89
2019-05-22T08:26:55.170Z,65.92
2019-05-22T08:29:21.752Z,65.79
2019-05-22T08:31:47.799Z,65.91
2019-05-22T08:34:13.759Z,66.02
2019-05-22T08:36:39.935Z,65.99
2019-05-22T08:39:06.678Z,66.10
2019-05-22T08:41:34.676Z,66.03
2019-05-22T08:44:15.225Z,65.89
2019-05-22T08:46:29.455Z,65.99
2019-05-22T08:48:55.489Z,65.99
2019-05-22T08:51:21.649Z,65.99
2019-05-22T08:53:48.824Z,66.02
2019-05-22T08:56:14.976Z,66.06
2019-05-22T08:58:42.061Z,66.01
2019-05-22T09:01:08.525Z,65.93
2019-05-22T09:03:34.696Z,66.11
2019-05-22T09:06:00.625Z,66.07
2019-05-22T09:08:26.571Z,65.64
2019-05-22T09:10:52.445Z,65.77
2019-05-22T09:13:18.363Z,65.93
2019-05-22T09:15:45.704Z,65.86
2019-05-22T09:18:12.123Z,65.92
2019-05-22T09:20:48.939Z,66.04
2019-05-22T09:23:07.392Z,65.87
2019-05-22T09:25:36.647Z,66.07
2019-05-22T09:28:04.927Z,65.97
2019-05-22T09:30:30.624Z,66.08
2019-05-22T09:32:57.716Z,66.14
2019-05-22T09:35:23.655Z,66.29
2019-05-22T09:37:49.651Z,65.97
2019-05-22T09:40:16.112Z,65.94
2019-05-22T09:42:42.194Z,65.80
2019-05-22T09:45:08.724Z,66.04
2019-05-22T09:47:35.199Z,66.00
2019-05-22T09:50:01.305Z,66.04
2019-05-22T09:52:27.507Z,65.96
2019-05-22T09:54:53.559Z,66.02
2019-05-22T09:57:19.812Z,65.88
2019-05-22T09:59:45.792Z,65.92
2019-05-22T10:02:12.636Z,66.03
2019-05-22T10:04:39.107Z,65.94
2019-05-22T10:07:05.177Z,66.01
2019-05-22T10:09:31.599Z,65.98
2019-05-22T10:11:57.691Z,65.96
2019-05-22T10:14:24.527Z,65.96
2019-05-22T10:16:51.107Z,65.74
2019-05-22T10:19:17.260Z,65.90
2019-05-22T10:21:43.716Z,65.87
2019-05-22T10:24:09.777Z,65.75
2019-05-22T10:26:36.647Z,65.66
2019-05-22T10:29:04.344Z,65.83
2019-05-22T10:31:30.491Z,66.10
2019-05-22T10:33:56.542Z,66.00
2019-05-22T10:36:22.693Z,65.99
2019-05-22T10:38:48.749Z,66.13
2019-05-22T10:41:15.314Z,65.91
2019-05-22T10:43:41.578Z,65.92
2019-05-22T10:46:08.557Z,65.98
2019-05-22T10:48:34.804Z,65.78
2019-05-22T10:51:00.851Z,65.99
2019-05-22T10:53:33.755Z,65.88
2019-05-22T10:55:55.098Z,66.04
2019-05-22T10:58:21.163Z,66.10
2019-05-22T11:00:47.198Z,66.06
2019-05-22T11:03:14.475Z,66.03
2019-05-22T11:05:41.152Z,65.99
2019-05-22T11:08:07.506Z,65.99
2019-05-22T11:10:36.443Z,65.84
2019-05-22T11:13:02.892Z,65.99
2019-05-22T11:15:29.498Z,65.97
2019-05-22T11:17:56.363Z,65.97
2019-05-22T11:20:23.145Z,66.10
2019-05-22T11:22:50.089Z,66.03
2019-05-22T11:25:16.085Z,65.94
2019-05-22T11:27:42.187Z,65.92
2019-05-22T11:30:09.785Z,65.98
2019-05-22T11:32:35.848Z,65.81
2019-05-22T11:35:02.212Z,65.92
2019-05-22T11:37:28.261Z,65.95
2019-05-22T11:39:54.431Z,65.79
2019-05-22T11:42:20.684Z,65.92
2019-05-22T11:44:46.849Z,65.72
2019-05-22T11:47:14.677Z,65.92
2019-05-22T11:49:40.800Z,66.05
2019-05-22T11:52:06.949Z,65.97
2019-05-22T11:54:33.501Z,65.94
2019-05-22T11:56:59.730Z,65.89
2019-05-22T11:59:26.131Z,65.97
2019-05-22T12:01:52.704Z,65.82
2019-05-22T12:04:18.816Z,65.80
2019-05-22T12:06:44.913Z,65.95
2019-05-22T12:09:12.935Z,65.87
2019-05-22T12:11:42.994Z,65.89
2019-05-22T12:14:07.333Z,65.96
2019-05-22T12:16:33.619Z,65.87
2019-05-22T12:18:59.870Z,65.86
2019-05-22T12:21:26.352Z,65.79
2019-05-22T12:23:52.723Z,65.89
2019-05-22T12:26:18.906Z,65.90
2019-05-22T12:28:44.859Z,65.91
2019-05-22T12:31:10.835Z,65.87
2019-05-22T12:33:37.390Z,65.90
2019-05-22T12:36:05.922Z,65.61
2019-05-22T12:38:32.425Z,65.89
2019-05-22T12:40:58.796Z,65.57
2019-05-22T12:43:25.097Z,65.83
2019-05-22T12:45:51.103Z,65.90
2019-05-22T12:48:17.456Z,65.93
2019-05-22T12:50:43.712Z,65.84
2019-05-22T12:53:11.504Z,65.95
2019-05-22T12:55:38.291Z,65.76
2019-05-22T12:58:04.550Z,65.83
2019-05-22T13:00:31.041Z,65.92
2019-05-22T13:02:58.298Z,66.01
2019-05-22T13:05:24.962Z,65.55
2019-05-22T13:07:51.655Z,65.63
2019-05-22T13:10:18.391Z,65.66
2019-05-22T13:12:44.644Z,65.71
2019-05-22T13:15:11.115Z,65.62
2019-05-22T13:17:37.569Z,65.32
2019-05-22T13:20:06.484Z,65.34
2019-05-22T13:22:34.882Z,65.14
2019-05-22T13:25:01.682Z,64.76
2019-05-22T13:27:27.665Z,65.01
2019-05-22T13:29:54.228Z,64.62
2019-05-22T13:32:21.221Z,65.11
2019-05-22T13:34:47.655Z,65.09
2019-05-22T13:37:14.113Z,64.94
2019-05-22T13:39:40.471Z,65.01
2019-05-22T13:42:06.624Z,64.96
2019-05-22T13:44:33.108Z,65.03
2019-05-22T13:46:59.228Z,65.18
2019-05-22T13:49:26.303Z,65.14
2019-05-22T13:51:53.171Z,65.25
2019-05-22T13:54:19.227Z,65.20
2019-05-22T13:56:45.289Z,65.16
2019-05-22T13:59:12.063Z,65.18
2019-05-22T14:01:38.122Z,65.26
2019-05-22T14:04:04.404Z,65.25
2019-05-22T14:06:30.527Z,65.25
2019-05-22T14:08:56.579Z,64.96
2019-05-22T14:11:22.833Z,65.25
2019-05-22T14:13:49.706Z,65.20
2019-05-22T14:16:16.266Z,65.36
2019-05-22T14:18:42.723Z,65.39
2019-05-22T14:21:08.772Z,65.33
2019-05-22T14:23:34.832Z,65.35
2019-05-22T14:26:00.774Z,65.20
2019-05-22T14:28:28.266Z,65.40
2019-05-22T14:30:54.623Z,65.19
2019-05-22T14:33:20.790Z,65.22
2019-05-22T14:35:49.041Z,65.01
2019-05-22T14:38:14.855Z,65.33
2019-05-22T14:40:40.748Z,65.30
2019-05-22T14:43:06.723Z,65.25
2019-05-22T14:45:34.950Z,65.39
2019-05-22T14:48:01.004Z,65.27
2019-05-22T14:50:27.863Z,65.27
2019-05-22T14:52:54.029Z,65.16
2019-05-22T14:55:20.625Z,65.20
2019-05-22T14:57:46.742Z,65.34
2019-05-22T15:00:13.816Z,65.25
2019-05-22T15:02:40.069Z,65.31
2019-05-22T15:05:06.323Z,65.04
2019-05-22T15:07:32.368Z,64.91
2019-05-22T15:09:58.277Z,65.27
2019-05-22T15:12:24.790Z,65.01
2019-05-22T15:14:53.075Z,65.07
2019-05-22T15:17:31.948Z,65.12
2019-05-22T15:19:46.947Z,65.15
2019-05-22T15:22:13.104Z,65.24
2019-05-22T15:24:39.547Z,65.04
2019-05-22T15:27:07.479Z,65.35
2019-05-22T15:29:36.314Z,65.26
2019-05-22T15:32:05.164Z,65.17
2019-05-22T15:34:31.591Z,65.12
2019-05-22T15:36:57.884Z,64.84
2019-05-22T15:39:24.990Z,65.33
2019-05-22T15:41:50.987Z,65.27
2019-05-22T15:44:18.100Z,65.18
2019-05-22T15:46:44.450Z,65.04
2019-05-22T15:49:10.501Z,65.08
2019-05-22T15:51:36.549Z,64.87
2019-05-22T15:54:08.034Z,65.09
2019-05-22T15:56:34.800Z,65.19
2019-05-22T15:59:01.459Z,64.82
2019-05-22T16:01:27.816Z,65.34
2019-05-22T16:03:54.345Z,65.49
2019-05-22T16:06:21.348Z,64.89
2019-05-22T16:08:47.222Z,65.04
2019-05-22T16:11:13.720Z,64.79
2019-05-22T16:13:39.924Z,65.30
2019-05-22T16:16:06.089Z,65.16
2019-05-22T16:18:36.144Z,65.26
2019-05-22T16:21:05.998Z,65.37
2019-05-22T16:23:32.612Z,65.26
2019-05-22T16:25:58.629Z,65.41
2019-05-22T16:28:25.064Z,65.47
2019-05-22T16:30:51.371Z,65.48
2019-05-22T16:33:17.395Z,65.56
2019-05-22T16:35:43.315Z,65.56
2019-05-22T16:38:09.185Z,65.52
2019-05-22T16:40:36.803Z,65.55
2019-05-22T16:43:04.304Z,65.48
2019-05-22T16:45:31.210Z,65.04
2019-05-22T16:47:57.491Z,65.43
2019-05-22T16:50:24.835Z,65.69
2019-05-22T16:52:51.849Z,65.56
2019-05-22T16:55:19.616Z,65.51
2019-05-22T16:57:46.908Z,65.66
2019-05-22T17:00:13.684Z,65.74
2019-05-22T17:02:40.885Z,65.43
2019-05-22T17:05:07.962Z,65.43
2019-05-22T17:07:34.720Z,65.59
2019-05-22T17:10:01.601Z,65.56
2019-05-22T17:12:29.048Z,65.44
2019-05-22T17:14:55.899Z,65.58
2019-05-22T17:17:23.263Z,65.68
2019-05-22T17:19:50.354Z,65.81
2019-05-22T17:22:16.600Z,65.78
2019-05-22T17:24:43.058Z,65.89
2019-05-22T17:27:11.361Z,65.74
2019-05-22T17:29:37.717Z,66.00
2019-05-22T17:32:08.183Z,65.68
2019-05-22T17:34:35.618Z,66.12
2019-05-22T17:37:04.029Z,65.66
2019-05-22T17:39:31.072Z,66.18
2019-05-22T17:41:57.122Z,65.97
2019-05-22T17:44:23.188Z,65.87
2019-05-22T17:46:49.455Z,65.95
2019-05-22T17:49:15.495Z,65.99
2019-05-22T17:51:41.659Z,65.92
2019-05-22T17:54:08.129Z,65.84
2019-05-22T17:56:34.492Z,65.50
2019-05-22T17:59:00.536Z,65.71
2019-05-22T18:01:27.203Z,65.74
2019-05-22T18:03:53.149Z,65.72
2019-05-22T18:06:19.729Z,66.02
2019-05-22T18:08:47.217Z,65.12
2019-05-22T18:11:14.016Z,64.89
2019-05-22T18:13:54.392Z,65.84
2019-05-22T18:16:20.869Z,65.62
2019-05-22T18:18:47.756Z,65.68
2019-05-22T18:21:14.334Z,65.79
2019-05-22T18:23:40.396Z,65.43
2019-05-22T18:26:06.448Z,65.57
2019-05-22T18:28:33.723Z,65.46
2019-05-22T18:30:59.874Z,65.63
2019-05-22T18:33:26.021Z,65.66
2019-05-22T18:35:52.713Z,65.24
2019-05-22T18:38:18.963Z,65.47
2019-05-22T18:40:45.332Z,65.56
2019-05-22T18:43:11.898Z,65.49
2019-05-22T18:45:38.461Z,65.55
2019-05-22T18:48:04.572Z,65.62
2019-05-22T18:50:31.182Z,65.41
2019-05-22T18:52:57.246Z,65.39
2019-05-22T18:55:23.406Z,65.34
2019-05-22T18:57:49.561Z,64.71
2019-05-22T19:00:17.155Z,64.25
2019-05-22T19:02:43.410Z,64.12
2019-05-22T19:05:10.075Z,64.68
2019-05-22T19:07:36.708Z,64.70
2019-05-22T19:10:06.289Z,64.50
2019-05-22T19:12:33.702Z,64.14
2019-05-22T19:14:59.964Z,64.27
2019-05-22T19:17:26.814Z,64.34
2019-05-22T19:19:55.081Z,64.29
2019-05-22T19:22:22.837Z,63.96
2019-05-22T19:24:50.615Z,64.17
2019-05-22T19:27:19.293Z,64.48
2019-05-22T19:29:46.823Z,64.32
2019-05-22T19:32:14.173Z,64.40
2019-05-22T19:34:41.385Z,63.92
2019-05-22T19:37:09.276Z,64.07
2019-05-22T19:39:37.315Z,63.62
2019-05-22T19:42:05.653Z,64.63
2019-05-22T19:44:31.929Z,64.35
2019-05-22T19:46:57.982Z,64.17
2019-05-22T19:49:25.772Z,64.19
2019-05-22T19:51:53.155Z,64.32
2019-05-22T19:54:20.138Z,64.60
2019-05-22T19:56:48.689Z,64.68
2019-05-22T19:59:15.835Z,64.71
2019-05-22T20:01:42.191Z,63.94
2019-05-22T20:04:09.071Z,64.07
2019-05-22T20:06:38.277Z,64.37
2019-05-22T20:09:07.218Z,64.42
2019-05-22T20:11:35.466Z,64.67
2019-05-22T20:14:02.091Z,64.55
2019-05-22T20:16:28.454Z,64.68
2019-05-22T20:18:54.516Z,64.48
2019-05-22T20:21:20.468Z,64.90
2019-05-22T20:23:46.939Z,64.45
2019-05-22T20:26:13.000Z,64.21
2019-05-22T20:28:39.470Z,64.70
2019-05-22T20:31:05.518Z,64.69
2019-05-22T20:33:31.971Z,64.30
2019-05-22T20:35:58.541Z,64.49
2019-05-22T20:38:25.403Z,64.29
2019-05-22T20:40:51.465Z,64.60
2019-05-22T20:43:17.860Z,64.41
2019-05-22T20:45:45.415Z,64.60
2019-05-22T20:48:15.155Z,64.61
2019-05-22T20:50:43.197Z,64.48
2019-05-22T20:53:10.527Z,64.26
2019-05-22T20:55:38.124Z,64.48
2019-05-22T20:58:05.731Z,64.68
2019-05-22T21:00:32.269Z,64.64
2019-05-22T21:03:02.419Z,64.76
2019-05-22T21:05:28.469Z,64.79
2019-05-22T21:07:54.831Z,64.82
2019-05-22T21:10:22.532Z,64.66
2019-05-22T21:12:50.335Z,64.71
2019-05-22T21:15:16.793Z,64.66
2019-05-22T21:17:43.262Z,64.68
2019-05-22T21:20:12.553Z,64.63
2019-05-22T21:22:40.093Z,64.64
2019-05-22T21:25:06.666Z,64.48
2019-05-22T21:27:32.720Z,64.71
2019-05-22T21:29:59.189Z,64.84
2019-05-22T21:32:26.261Z,64.40
2019-05-22T21:34:53.643Z,64.79
2019-05-22T21:37:19.692Z,64.55
2019-05-22T21:39:45.746Z,64.50
2019-05-22T21:42:12.741Z,64.80
2019-05-22T21:44:39.804Z,64.29
2019-05-22T21:47:07.096Z,64.53
2019-05-22T21:49:33.982Z,64.72
2019-05-22T21:52:00.329Z,64.16
2019-05-22T21:54:26.596Z,64.71
2019-05-22T21:56:53.068Z,64.49
2019-05-22T21:59:19.436Z,64.80
2019-05-22T22:01:50.208Z,64.50
2019-05-22T22:04:18.219Z,64.62
2019-05-22T22:06:44.892Z,64.25
2019-05-22T22:09:11.875Z,64.21
2019-05-22T22:11:38.041Z,64.48
2019-05-22T22:14:04.527Z,64.52
2019-05-22T22:16:30.553Z,64.53
2019-05-22T22:18:56.506Z,64.81
2019-05-22T22:21:22.558Z,64.61
2019-05-22T22:23:48.613Z,64.38
2019-05-22T22:26:25.238Z,64.61
2019-05-22T22:28:42.681Z,64.30
2019-05-22T22:31:19.763Z,64.41
2019-05-22T22:33:47.144Z,64.68
2019-05-22T22:36:14.265Z,64.84
2019-05-22T22:38:42.418Z,64.12
2019-05-22T22:41:09.496Z,64.34
2019-05-22T22:43:37.198Z,64.30
2019-05-22T22:46:05.494Z,64.45
2019-05-22T22:48:36.596Z,64.61
2019-05-22T22:51:05.883Z,64.58
2019-05-22T22:53:31.958Z,64.76
2019-05-22T22:55:58.313Z,64.58
2019-05-22T22:58:24.983Z,64.63
2019-05-22T23:00:52.909Z,64.58
2019-05-22T23:03:19.960Z,64.53
2019-05-22T23:05:47.371Z,64.63
2019-05-22T23:08:15.573Z,64.69
2019-05-22T23:10:41.920Z,64.76
2019-05-22T23:13:08.802Z,64.37
2019-05-22T23:15:34.956Z,64.54
2019-05-22T23:18:02.133Z,64.61
2019-05-22T23:20:28.588Z,64.61
2019-05-22T23:22:54.536Z,64.27
2019-05-22T23:25:20.896Z,64.34
2019-05-22T23:27:48.082Z,64.50
2019-05-22T23:30:15.997Z,64.38
2019-05-22T23:32:42.062Z,64.12
2019-05-22T23:35:08.431Z,64.33
2019-05-22T23:37:35.003Z,64.52
2019-05-22T23:40:01.260Z,64.08
2019-05-22T23:42:29.570Z,64.68
2019-05-22T23:44:56.459Z,64.46
2019-05-22T23:47:22.918Z,64.02
2019-05-22T23:49:49.076Z,64.06
2019-05-22T23:52:17.056Z,63.43
2019-05-22T23:54:44.231Z,64.54
2019-05-22T23:57:10.348Z,64.26
2019-05-22T23:59:38.494Z,64.01
